Time;durP1;ratioP1;P1;durP2;ratioP2;P2;SDS_P1;SDS_P2;PMS_P1;PMS_P2;Temp;Humidity;BMP_temperature;BMP_pressure;BME280_temperature;BME280_humidity;BME280_pressure;Samples;Min_cycle;Max_cycle;Signal;HPM_P1;HPM_P2
2021/12/10 00:00:39;;;;;;;24.75;6.65;;;;;;;2.79;100.00;99663.00;5224643;28;20028;-69
2021/12/10 00:03:16;;;;;;;22.50;6.90;;;;;;;2.85;100.00;99657.13;5237681;28;20029;-69
2021/12/10 00:06:00;;;;;;;23.80;7.20;;;;;;;2.79;100.00;99647.94;5223212;28;20021;-69
2021/12/10 00:08:34;;;;;;;16.63;6.05;;;;;;;2.74;100.00;99628.19;5224290;28;20031;-69
2021/12/10 00:11:10;;;;;;;16.13;6.38;;;;;;;2.68;100.00;99621.66;5223954;28;20021;-68
2021/12/10 00:13:44;;;;;;;22.00;6.18;;;;;;;2.75;100.00;99614.78;5223912;28;20021;-69
2021/12/10 00:16:17;;;;;;;17.13;5.80;;;;;;;2.78;100.00;99611.03;5223447;28;20340;-69
2021/12/10 00:18:54;;;;;;;16.10;5.72;;;;;;;2.75;100.00;99606.84;5223826;28;20032;-68
2021/12/10 00:21:26;;;;;;;16.50;5.80;;;;;;;2.71;100.00;99592.25;5223874;28;20029;-69
2021/12/10 00:23:57;;;;;;;17.90;6.07;;;;;;;2.77;100.00;99585.53;5223526;28;20111;-69
2021/12/10 00:26:28;;;;;;;17.08;5.93;;;;;;;2.77;100.00;99582.88;5223071;28;20111;-68
2021/12/10 00:29:03;;;;;;;17.23;6.00;;;;;;;2.74;100.00;99577.84;5223348;28;20044;-69
2021/12/10 00:34:14;;;;;;;19.73;6.30;;;;;;;2.62;100.00;99564.00;5223325;28;20052;-69
2021/12/10 00:36:46;;;;;;;23.65;5.72;;;;;;;2.61;100.00;99551.72;5223197;28;20070;-69
2021/12/10 00:39:22;;;;;;;15.13;5.82;;;;;;;2.55;100.00;99547.00;5223486;28;20436;-69
2021/12/10 00:41:53;;;;;;;;;;;;;;;2.53;100.00;99533.09;5223650;28;20477;-69
2021/12/10 00:44:24;;;;;;;14.57;5.25;;;;;;;2.53;100.00;99531.28;5222754;28;19909;-69
2021/12/10 00:46:55;;;;;;;18.23;5.30;;;;;;;2.59;100.00;99520.09;5223095;28;20028;-69
2021/12/10 00:49:25;;;;;;;16.88;5.43;;;;;;;2.56;100.00;99516.88;5223256;28;20029;-69
2021/12/10 00:51:56;;;;;;;17.13;4.75;;;;;;;2.54;100.00;99511.75;5223125;28;20032;-69
2021/12/10 00:54:27;;;;;;;15.23;4.97;;;;;;;2.48;100.00;99507.06;5222454;28;20640;-69
2021/12/10 00:56:57;;;;;;;20.15;5.53;;;;;;;2.51;100.00;99501.47;5223171;28;20086;-69
2021/12/10 00:59:28;;;;;;;13.48;4.75;;;;;;;2.41;100.00;99495.41;5222104;28;20029;-69
2021/12/10 01:01:59;;;;;;;13.55;4.30;;;;;;;2.36;100.00;99484.41;5233369;28;20027;-69
2021/12/10 01:04:32;;;;;;;13.90;4.68;;;;;;;2.38;100.00;99473.69;5225417;28;20021;-69
2021/12/10 01:07:07;;;;;;;23.42;5.47;;;;;;;2.39;100.00;99467.41;5222736;28;20017;-69
2021/12/10 01:09:42;;;;;;;18.45;5.10;;;;;;;2.33;100.00;99469.66;5223135;28;20059;-69
2021/12/10 01:12:19;;;;;;;11.88;4.57;;;;;;;2.36;100.00;99457.09;5222639;28;20025;-69
2021/12/10 01:23:48;;;;;;;14.57;3.95;;;;;;;2.50;100.00;99428.31;5222687;28;20036;-69
2021/12/10 01:26:51;;;;;;;14.48;4.20;;;;;;;2.52;100.00;99421.06;5222235;28;20020;-68
2021/12/10 01:29:26;;;;;;;21.13;4.50;;;;;;;2.55;100.00;99422.56;5211134;28;20378;-69
2021/12/10 01:31:58;;;;;;;11.60;3.67;;;;;;;2.60;100.00;99410.53;5222415;28;20547;-69
2021/12/10 01:34:29;;;;;;;17.42;4.70;;;;;;;2.68;100.00;99404.50;5221919;28;20139;-69
2021/12/10 01:37:02;;;;;;;13.43;3.63;;;;;;;2.78;100.00;99405.25;5221898;28;20130;-68
2021/12/10 01:39:36;;;;;;;8.85;3.05;;;;;;;2.77;100.00;99400.97;5221685;28;20081;-69
2021/12/10 01:42:19;;;;;;;15.38;4.75;;;;;;;2.86;100.00;99399.19;5222156;28;20762;-69
2021/12/10 01:44:52;;;;;;;13.40;3.60;;;;;;;2.90;100.00;99392.63;5221213;28;20494;-69
2021/12/10 01:47:28;;;;;;;13.20;3.42;;;;;;;2.93;100.00;99379.06;5222034;28;20086;-69
2021/12/10 01:49:59;;;;;;;13.45;3.70;;;;;;;2.98;100.00;99374.16;5221391;28;20024;-69
2021/12/10 01:52:30;;;;;;;11.55;3.10;;;;;;;2.99;100.00;99361.72;5221899;28;20025;-69
2021/12/10 01:55:02;;;;;;;16.13;4.18;;;;;;;3.04;100.00;99364.75;5221159;28;20025;-68
2021/12/10 01:57:35;;;;;;;15.27;3.05;;;;;;;3.06;100.00;99358.31;5221144;28;20040;-68
2021/12/10 02:00:09;;;;;;;14.13;3.97;;;;;;;3.06;100.00;99354.81;5221355;28;20362;-69
2021/12/10 02:02:45;;;;;;;8.43;2.90;;;;;;;3.10;100.00;99353.53;5234685;28;20053;-69
2021/12/10 02:05:17;;;;;;;13.65;3.35;;;;;;;3.10;100.00;99346.41;5222062;28;20668;-69
2021/12/10 02:07:49;;;;;;;8.27;2.90;;;;;;;3.09;100.00;99335.97;5222063;28;20037;-68
2021/12/10 02:10:22;;;;;;;15.68;2.90;;;;;;;3.13;100.00;99332.03;5222162;28;20020;-68
2021/12/10 02:12:53;;;;;;;11.93;2.97;;;;;;;3.10;100.00;99321.72;5217714;28;20021;-69
2021/12/10 02:15:29;;;;;;;13.32;3.13;;;;;;;3.11;100.00;99331.34;5215252;28;20623;-68
2021/12/10 02:18:02;;;;;;;12.05;2.80;;;;;;;3.15;100.00;99316.78;5221826;28;20021;-68
2021/12/10 02:20:52;;;;;;;13.10;2.70;;;;;;;3.18;100.00;99307.72;5221780;28;20330;-69
2021/12/10 02:23:24;;;;;;;13.55;2.67;;;;;;;3.18;100.00;99313.00;5221633;28;20059;-69
2021/12/10 02:25:55;;;;;;;10.35;2.47;;;;;;;3.22;100.00;99293.16;5221144;28;20041;-69
2021/12/10 02:28:26;;;;;;;14.95;2.58;;;;;;;3.21;100.00;99294.97;5221731;28;20048;-69
2021/12/10 02:30:56;;;;;;;13.15;2.97;;;;;;;3.25;100.00;99287.53;5221789;28;20021;-69
2021/12/10 02:33:27;;;;;;;9.10;2.65;;;;;;;3.24;100.00;99281.41;5221418;28;20023;-69
2021/12/10 02:35:57;;;;;;;3.47;2.13;;;;;;;3.23;100.00;99268.31;5221413;28;20547;-69
2021/12/10 02:38:28;;;;;;;20.20;3.20;;;;;;;3.24;100.00;99272.63;5221737;28;20036;-69
2021/12/10 02:40:59;;;;;;;6.32;2.30;;;;;;;3.25;100.00;99269.81;5221812;28;20445;-68
2021/12/10 02:43:30;;;;;;;10.90;2.30;;;;;;;3.32;100.00;99265.56;5221480;28;20107;-69
2021/12/10 02:46:01;;;;;;;8.25;2.03;;;;;;;3.40;100.00;99258.63;5220803;28;20024;-69
2021/12/10 02:48:32;;;;;;;7.75;2.33;;;;;;;3.41;100.00;99249.66;5221164;28;20071;-68
2021/12/10 02:51:06;;;;;;;7.38;2.35;;;;;;;3.39;100.00;99241.88;5221387;28;20021;-68
2021/12/10 02:53:44;;;;;;;10.27;3.33;;;;;;;3.42;100.00;99246.88;5221319;28;20576;-68
2021/12/10 02:56:18;;;;;;;11.77;2.40;;;;;;;3.44;100.00;99234.28;5219627;28;20400;-69
2021/12/10 02:58:53;;;;;;;7.85;2.08;;;;;;;3.47;100.00;99233.97;5221345;28;20025;-68
2021/12/10 03:01:28;;;;;;;8.18;2.50;;;;;;;3.47;100.00;99219.91;5221099;28;20020;-69
2021/12/10 03:04:00;;;;;;;9.48;2.03;;;;;;;3.47;100.00;99219.91;5221177;28;20036;-69
2021/12/10 03:06:31;;;;;;;11.27;1.80;;;;;;;3.49;100.00;99213.44;5220747;28;20103;-69
2021/12/10 03:09:05;;;;;;;8.57;2.45;;;;;;;3.53;100.00;99206.00;5220723;28;20127;-69
2021/12/10 03:11:37;;;;;;;9.10;1.77;;;;;;;3.57;100.00;99205.50;5221277;28;20047;-69
2021/12/10 03:14:10;;;;;;;8.68;2.15;;;;;;;3.59;100.00;99190.25;5220611;28;20025;-68
2021/12/10 03:16:42;;;;;;;11.20;2.38;;;;;;;3.71;100.00;99185.47;5221015;28;20021;-69
2021/12/10 03:19:13;;;;;;;18.15;2.08;;;;;;;3.65;100.00;99183.47;5219409;28;20029;-68
2021/12/10 03:21:44;;;;;;;18.05;1.50;;;;;;;3.73;100.00;99180.84;5220984;28;20573;-69
2021/12/10 03:24:18;;;;;;;5.35;1.13;;;;;;;3.70;100.00;99169.72;5220612;28;20078;-68
2021/12/10 03:26:52;;;;;;;5.70;1.50;;;;;;;3.70;100.00;99173.19;5221221;28;20020;-68
2021/12/10 03:29:27;;;;;;;10.75;1.65;;;;;;;3.71;100.00;99166.91;5221118;28;20029;-69
2021/12/10 03:32:00;;;;;;;12.10;1.45;;;;;;;3.82;100.00;99158.66;5220747;28;20491;-69
2021/12/10 03:34:31;;;;;;;15.23;1.95;;;;;;;3.76;100.00;99151.31;5220862;28;20028;-69
2021/12/10 03:37:03;;;;;;;9.80;1.23;;;;;;;3.75;100.00;99147.00;5220923;28;20483;-68
2021/12/10 03:39:35;;;;;;;9.43;1.17;;;;;;;3.77;100.00;99139.75;5221394;28;20432;-69
2021/12/10 03:42:07;;;;;;;7.07;1.10;;;;;;;3.76;100.00;99142.53;5220785;28;20096;-69
2021/12/10 03:44:38;;;;;;;3.83;0.90;;;;;;;3.68;100.00;99132.75;5219996;28;20025;-69
2021/12/10 03:47:10;;;;;;;6.32;1.50;;;;;;;3.64;100.00;99126.13;5220676;28;20025;-69
2021/12/10 03:49:42;;;;;;;11.63;1.98;;;;;;;3.60;100.00;99124.78;5220513;28;20025;-69
2021/12/10 03:52:13;;;;;;;8.45;1.13;;;;;;;3.61;100.00;99129.09;5221004;28;20470;-69
2021/12/10 03:54:44;;;;;;;4.22;1.33;;;;;;;3.63;100.00;99113.88;5219667;28;20048;-69
2021/12/10 03:57:14;;;;;;;2.95;0.90;;;;;;;3.66;100.00;99113.50;5220923;28;20776;-69
2021/12/10 03:59:45;;;;;;;3.38;0.90;;;;;;;3.71;100.00;99103.25;5220791;28;20033;-69
2021/12/10 04:02:16;;;;;;;4.88;1.23;;;;;;;3.66;100.00;99100.25;5220621;28;20582;-69
2021/12/10 04:04:49;;;;;;;2.83;1.27;;;;;;;3.66;100.00;99092.31;5220136;28;20512;-69
2021/12/10 04:07:24;;;;;;;4.82;1.00;;;;;;;3.70;100.00;99095.47;5222618;28;20033;-69
2021/12/10 04:09:55;;;;;;;8.60;1.10;;;;;;;3.70;100.00;99092.81;5224623;28;20021;-69
2021/12/10 04:12:25;;;;;;;7.93;2.25;;;;;;;3.68;100.00;99090.34;5224314;28;20056;-69
2021/12/10 04:14:56;;;;;;;1.70;0.70;;;;;;;3.73;100.00;99079.22;5214091;28;20491;-69
2021/12/10 04:17:27;;;;;;;6.30;0.93;;;;;;;3.74;100.00;99076.41;5224323;28;20055;-69
2021/12/10 04:19:58;;;;;;;3.30;0.77;;;;;;;3.78;100.00;99074.25;5223986;28;20098;-69
2021/12/10 04:22:32;;;;;;;4.72;1.70;;;;;;;3.80;100.00;99069.59;5224068;28;20025;-69
2021/12/10 04:25:07;;;;;;;1.88;0.70;;;;;;;3.80;100.00;99051.84;5222363;28;20029;-69
2021/12/10 04:27:37;;;;;;;;;;;;;;;3.81;100.00;99050.84;5224439;28;20021;-69
2021/12/10 04:30:11;;;;;;;5.32;0.90;;;;;;;3.81;100.00;99045.56;5223691;28;19908;-69
2021/12/10 04:32:43;;;;;;;3.05;0.93;;;;;;;3.83;100.00;99040.09;5222568;28;20472;-69
2021/12/10 04:35:15;;;;;;;5.45;0.85;;;;;;;3.78;100.00;99027.34;5223520;28;20060;-69
2021/12/10 04:37:48;;;;;;;4.68;0.70;;;;;;;3.78;100.00;99030.00;5223643;28;20478;-69
2021/12/10 04:40:21;;;;;;;6.95;1.13;;;;;;;3.71;100.00;99030.81;5223683;28;20553;-69
2021/12/10 04:42:52;;;;;;;2.70;0.63;;;;;;;3.68;100.00;99031.16;5223465;28;20313;-69
2021/12/10 04:45:22;;;;;;;10.38;0.90;;;;;;;3.64;100.00;99028.00;5223312;28;20497;-69
2021/12/10 04:47:53;;;;;;;5.32;0.63;;;;;;;3.60;100.00;99032.81;5223468;28;20035;-69
2021/12/10 04:50:27;;;;;;;4.97;0.47;;;;;;;3.55;100.00;99027.16;5224025;28;20025;-69
2021/12/10 04:52:58;;;;;;;6.55;0.73;;;;;;;3.47;100.00;99015.75;5223093;28;20029;-69
2021/12/10 04:55:30;;;;;;;6.03;0.80;;;;;;;3.41;100.00;99011.91;5223049;28;20115;-69
2021/12/10 04:58:00;;;;;;;5.60;0.88;;;;;;;3.29;100.00;99002.63;5223445;28;20033;-69
2021/12/10 05:00:40;;;;;;;4.68;0.52;;;;;;;3.23;100.00;99004.13;5223678;28;20033;-69
2021/12/10 05:03:11;;;;;;;3.35;0.73;;;;;;;3.13;100.00;99008.75;5223227;28;20024;-69
2021/12/10 05:05:43;;;;;;;8.02;1.10;;;;;;;3.09;100.00;98992.34;5222389;28;20257;-70
2021/12/10 05:08:14;;;;;;;5.70;0.98;;;;;;;3.05;100.00;98995.47;5223469;28;20029;-70
2021/12/10 05:10:45;;;;;;;4.20;0.95;;;;;;;3.01;100.00;98992.34;5213009;28;20021;-70
2021/12/10 05:13:15;;;;;;;3.75;0.93;;;;;;;2.95;100.00;98987.69;5210660;28;20496;-70
2021/12/10 05:15:53;;;;;;;6.43;0.75;;;;;;;2.93;100.00;98984.38;5222025;28;20032;-69
2021/12/10 05:18:28;;;;;;;5.18;0.90;;;;;;;2.85;100.00;98987.00;5221739;28;20040;-69
2021/12/10 05:20:59;;;;;;;;;;;;;;;2.79;100.00;98977.88;5223209;28;20032;-69
2021/12/10 05:23:30;;;;;;;2.42;0.45;;;;;;;2.78;100.00;98984.19;5222977;28;20379;-69
2021/12/10 05:26:01;;;;;;;7.50;1.15;;;;;;;2.78;100.00;98972.75;5222584;28;20039;-70
2021/12/10 05:28:32;;;;;;;6.18;1.02;;;;;;;2.78;100.00;98973.59;5222161;28;20370;-70
2021/12/10 05:31:02;;;;;;;2.33;0.70;;;;;;;2.79;100.00;98969.13;5222621;28;20028;-69
2021/12/10 05:33:34;;;;;;;5.32;0.98;;;;;;;2.76;100.00;98972.06;5223232;28;20056;-69
2021/12/10 05:36:05;;;;;;;1.70;0.82;;;;;;;2.73;100.00;98967.13;5222367;28;20103;-69
2021/12/10 05:38:36;;;;;;;6.20;0.80;;;;;;;2.75;100.00;98958.00;5222510;28;20048;-69
2021/12/10 05:41:09;;;;;;;1.98;0.68;;;;;;;2.76;100.00;98958.84;5222157;28;20021;-70
2021/12/10 05:43:42;;;;;;;3.70;1.17;;;;;;;2.73;100.00;98957.34;5223117;28;20389;-69
2021/12/10 05:46:13;;;;;;;8.32;0.80;;;;;;;2.74;100.00;98951.06;5222097;28;20557;-69
2021/12/10 05:48:44;;;;;;;3.72;0.70;;;;;;;2.76;100.00;98951.75;5222474;28;20021;-69
2021/12/10 05:51:15;;;;;;;2.53;0.77;;;;;;;2.80;100.00;98949.59;5222234;28;20020;-69
2021/12/10 05:53:45;;;;;;;5.72;0.63;;;;;;;2.80;100.00;98952.22;5220736;28;20033;-70
2021/12/10 05:56:18;;;;;;;2.15;0.80;;;;;;;2.79;100.00;98947.94;5221930;28;20025;-69
2021/12/10 05:58:48;;;;;;;3.50;1.48;;;;;;;2.82;100.00;98942.31;5220867;28;20048;-70
2021/12/10 06:01:20;;;;;;;4.88;0.90;;;;;;;2.79;100.00;98945.28;5226896;28;20404;-69
2021/12/10 06:03:52;;;;;;;2.38;0.93;;;;;;;2.79;100.00;98947.94;5230185;28;20025;-69
2021/12/10 06:06:27;;;;;;;7.90;0.65;;;;;;;2.77;100.00;98945.47;5221210;28;20039;-70
2021/12/10 06:08:59;;;;;;;1.65;0.60;;;;;;;2.74;100.00;98939.66;5221902;28;20060;-70
2021/12/10 06:11:30;;;;;;;3.70;0.82;;;;;;;2.75;100.00;98939.47;5222072;28;20052;-70
2021/12/10 06:14:00;;;;;;;2.63;0.80;;;;;;;2.77;100.00;98949.94;5221515;28;20064;-69
2021/12/10 06:16:31;;;;;;;3.00;0.82;;;;;;;2.79;100.00;98938.16;5221746;28;20599;-70
2021/12/10 06:19:04;;;;;;;3.55;0.65;;;;;;;2.78;100.00;98931.22;5221685;28;20385;-69
2021/12/10 06:21:37;;;;;;;3.38;0.90;;;;;;;2.77;100.00;98926.91;5221724;28;20035;-70
2021/12/10 06:24:09;;;;;;;1.50;0.70;;;;;;;2.77;100.00;98929.56;5221595;28;20473;-70
2021/12/10 06:26:39;;;;;;;2.95;0.70;;;;;;;2.77;100.00;98923.44;5221814;28;20044;-70
2021/12/10 06:29:10;;;;;;;6.10;1.02;;;;;;;2.76;100.00;98927.06;5221799;28;20067;-69
2021/12/10 06:31:40;;;;;;;2.17;0.75;;;;;;;2.76;100.00;98924.41;5201040;28;20250;-69
2021/12/10 06:34:11;;;;;;;3.33;0.80;;;;;;;2.76;100.00;98927.91;5207583;28;20032;-70
2021/12/10 06:36:42;;;;;;;2.40;0.70;;;;;;;2.79;100.00;98932.03;5219876;28;20021;-70
2021/12/10 06:39:12;;;;;;;3.78;0.80;;;;;;;2.77;100.00;98934.88;5219681;28;20024;-70
2021/12/10 06:41:43;;;;;;;3.25;0.70;;;;;;;2.77;100.00;98931.38;5218604;28;20021;-71
2021/12/10 06:44:14;;;;;;;2.88;0.63;;;;;;;2.74;100.00;98931.69;5219750;28;20469;-70
2021/12/10 06:46:45;;;;;;;3.05;0.90;;;;;;;2.79;100.00;98932.88;5219900;28;20136;-70
2021/12/10 06:49:18;;;;;;;3.60;0.85;;;;;;;2.82;100.00;98931.72;5219838;28;20075;-71
2021/12/10 06:51:48;;;;;;;1.75;0.80;;;;;;;2.79;100.00;98927.56;5218381;28;20051;-70
2021/12/10 06:54:19;;;;;;;3.75;1.05;;;;;;;2.77;100.00;98931.38;5219036;28;20021;-70
2021/12/10 06:56:50;;;;;;;7.65;2.45;;;;;;;2.73;100.00;98930.88;5219744;28;20089;-71
2021/12/10 06:59:24;;;;;;;2.55;1.00;;;;;;;2.71;100.00;98935.53;5219401;28;20436;-70
2021/12/10 07:01:54;;;;;;;5.93;1.23;;;;;;;2.73;100.00;98938.81;5228949;28;20024;-71
2021/12/10 07:04:25;;;;;;;3.75;0.90;;;;;;;2.68;100.00;98938.47;5220714;28;20063;-70
2021/12/10 07:06:55;;;;;;;6.47;1.30;;;;;;;2.64;100.00;98937.13;5219373;28;20033;-70
2021/12/10 07:09:26;;;;;;;2.17;0.90;;;;;;;2.63;100.00;98934.66;5213865;28;20022;-71
2021/12/10 07:11:57;;;;;;;1.80;1.20;;;;;;;2.62;100.00;98936.50;5198428;28;20348;-71
2021/12/10 07:14:27;;;;;;;8.07;1.10;;;;;;;2.63;100.00;98937.31;5205396;28;20017;-70
2021/12/10 07:16:58;;;;;;;1.95;1.08;;;;;;;2.62;100.00;98938.31;5217278;28;20031;-71
2021/12/10 07:19:29;;;;;;;2.25;1.10;;;;;;;2.63;100.00;98938.13;5218745;28;20021;-71
2021/12/10 07:21:59;;;;;;;3.65;1.08;;;;;;;2.62;100.00;98941.78;5200831;28;20069;-71
2021/12/10 07:24:30;;;;;;;2.97;1.33;;;;;;;2.57;100.00;98942.25;5218471;28;20021;-71
2021/12/10 07:27:01;;;;;;;3.92;1.20;;;;;;;2.52;100.00;98941.91;5219080;28;20195;-71
2021/12/10 07:29:31;;;;;;;4.38;1.25;;;;;;;2.51;100.00;98934.97;5218513;28;20435;-71
2021/12/10 07:32:02;;;;;;;3.75;1.40;;;;;;;2.52;100.00;98938.44;5217463;28;20065;-71
2021/12/10 07:34:32;;;;;;;4.05;1.70;;;;;;;2.50;100.00;98943.06;5218514;28;20032;-70
2021/12/10 07:37:04;;;;;;;2.17;1.23;;;;;;;2.53;100.00;98942.75;5218853;28;20104;-70
2021/12/10 07:39:35;;;;;;;3.95;1.48;;;;;;;2.52;100.00;98941.91;5219387;28;20040;-70
2021/12/10 07:42:07;;;;;;;2.17;1.20;;;;;;;2.52;100.00;98941.91;5220211;28;20047;-69
2021/12/10 07:44:38;;;;;;;4.88;1.65;;;;;;;2.47;100.00;98941.56;5207353;28;20021;-69
2021/12/10 07:47:13;;;;;;;3.22;1.30;;;;;;;2.46;100.00;98950.50;5202190;28;20092;-69
2021/12/10 07:49:44;;;;;;;4.63;1.42;;;;;;;2.45;100.00;98940.88;5215086;28;20025;-69
2021/12/10 07:52:22;;;;;;;3.38;1.63;;;;;;;2.49;100.00;98952.00;5212106;28;20378;-69
2021/12/10 07:54:52;;;;;;;3.35;1.48;;;;;;;2.44;100.00;98944.53;5222834;28;20021;-69
2021/12/10 07:57:24;;;;;;;4.97;1.52;;;;;;;2.44;100.00;98949.81;5223509;28;20033;-69
2021/12/10 07:59:56;;;;;;;3.90;1.38;;;;;;;2.44;100.00;98954.28;5222803;28;20478;-71
2021/12/10 08:02:27;;;;;;;4.65;1.63;;;;;;;2.43;100.00;98955.28;5218949;28;20025;-70
2021/12/10 08:05:00;;;;;;;3.13;1.70;;;;;;;2.44;100.00;98957.75;5221986;28;20031;-69
2021/12/10 08:07:31;;;;;;;3.05;1.48;;;;;;;2.44;100.00;98952.47;5222913;28;20033;-71
2021/12/10 08:10:04;;;;;;;3.38;1.80;;;;;;;2.41;100.00;98949.31;5222584;28;20021;-69
2021/12/10 08:12:35;;;;;;;7.22;1.95;;;;;;;2.38;100.00;98960.22;5222704;28;20393;-69
2021/12/10 08:15:07;;;;;;;4.95;1.95;;;;;;;2.37;100.00;98956.75;5221983;28;20028;-69
2021/12/10 08:17:38;;;;;;;3.40;1.98;;;;;;;2.35;100.00;98945.47;5222594;28;20032;-69
2021/12/10 08:20:12;;;;;;;3.20;1.42;;;;;;;2.32;100.00;98946.66;5222444;28;20404;-69
2021/12/10 08:22:43;;;;;;;4.10;1.75;;;;;;;2.32;100.00;98944.00;5222685;28;20033;-69
2021/12/10 08:25:14;;;;;;;3.33;1.52;;;;;;;2.34;100.00;98951.78;5222212;28;20155;-70
2021/12/10 08:27:45;;;;;;;1.95;1.40;;;;;;;2.32;100.00;98951.94;5222254;28;20063;-69
2021/12/10 08:30:18;;;;;;;3.92;1.30;;;;;;;2.30;100.00;98947.78;5222212;28;20389;-70
2021/12/10 08:32:54;;;;;;;2.95;1.77;;;;;;;2.26;100.00;98957.88;5212573;28;20033;-69
2021/12/10 08:35:30;;;;;;;2.33;1.45;;;;;;;2.22;100.00;98951.25;5220100;28;20107;-70
2021/12/10 08:38:01;;;;;;;5.47;2.00;;;;;;;2.21;100.00;98956.66;5222056;28;20025;-70
2021/12/10 08:40:36;;;;;;;3.30;1.75;;;;;;;2.17;100.00;98956.19;5221725;28;20032;-69
2021/12/10 08:43:06;;;;;;;;;;;;;;;2.17;100.00;98961.47;5222819;28;20020;-69
2021/12/10 08:45:39;;;;;;;3.88;1.67;;;;;;;2.08;100.00;98957.13;5222019;28;19916;-70
2021/12/10 08:48:10;;;;;;;2.67;1.52;;;;;;;2.08;100.00;98959.78;5220924;28;20037;-71
2021/12/10 08:50:41;;;;;;;2.38;1.38;;;;;;;2.04;100.00;98964.53;5221393;28;20028;-68
2021/12/10 08:53:13;;;;;;;2.78;1.70;;;;;;;2.07;100.00;98960.75;5221661;28;20031;-69
2021/12/10 08:55:48;;;;;;;2.72;1.60;;;;;;;2.06;100.00;98961.75;5221581;28;20398;-70
2021/12/10 08:58:19;;;;;;;2.90;1.67;;;;;;;2.02;100.00;98969.16;5221584;28;20025;-68
2021/12/10 09:00:55;;;;;;;4.50;1.77;;;;;;;2.01;100.00;98964.03;5220861;28;20393;-70
2021/12/10 09:03:26;;;;;;;;;;;;;;;1.97;100.00;98960.06;5222040;28;20032;-70
2021/12/10 09:05:57;;;;;;;3.45;1.88;;;;;;;1.91;100.00;98960.66;5221309;28;19909;-70
2021/12/10 09:08:27;;;;;;;3.05;1.40;;;;;;;1.87;100.00;98967.28;5221322;28;20081;-70
2021/12/10 09:10:58;;;;;;;2.63;1.58;;;;;;;1.85;100.00;98966.56;5220851;28;20038;-69
2021/12/10 09:13:28;;;;;;;2.17;1.20;;;;;;;1.79;100.00;98970.69;5220795;28;20029;-69
2021/12/10 09:16:02;;;;;;;2.30;1.30;;;;;;;1.82;100.00;98970.38;5220953;28;20112;-69
2021/12/10 09:18:38;;;;;;;2.75;1.40;;;;;;;1.79;100.00;98968.84;5221499;28;20474;-68
2021/12/10 09:21:09;;;;;;;3.08;1.50;;;;;;;1.84;100.00;98971.03;5220814;28;20017;-68
2021/12/10 09:23:40;;;;;;;4.45;1.60;;;;;;;1.84;100.00;98973.69;5214296;28;20064;-67
2021/12/10 09:26:16;;;;;;;1.58;1.17;;;;;;;1.78;100.00;98979.59;5220743;28;20028;-69
2021/12/10 09:28:47;;;;;;;2.55;1.75;;;;;;;1.78;100.00;98982.25;5221251;28;20025;-69
2021/12/10 09:31:24;;;;;;;9.77;2.03;;;;;;;1.78;100.00;98987.53;5220657;28;20031;-69
2021/12/10 09:33:57;;;;;;;2.33;1.67;;;;;;;1.78;100.00;98993.66;5221127;28;20099;-70
2021/12/10 09:36:28;;;;;;;3.30;1.67;;;;;;;1.83;100.00;98992.34;5220298;28;20017;-71
2021/12/10 09:38:59;;;;;;;4.13;2.15;;;;;;;1.84;100.00;98999.31;5220806;28;20135;-70
2021/12/10 09:41:30;;;;;;;3.28;1.88;;;;;;;1.83;100.00;99000.28;5220072;28;20370;-70
2021/12/10 09:44:00;;;;;;;3.45;2.05;;;;;;;1.88;100.00;99000.66;5221120;28;20028;-70
2021/12/10 09:46:31;;;;;;;6.15;2.45;;;;;;;1.88;100.00;99004.13;5220410;28;20028;-70
2021/12/10 09:49:04;;;;;;;4.65;2.80;;;;;;;1.93;100.00;99009.78;5220850;28;20047;-69
2021/12/10 09:51:41;;;;;;;4.32;2.33;;;;;;;1.88;100.00;99017.34;5220213;28;20032;-69
2021/12/10 09:54:16;;;;;;;4.63;2.55;;;;;;;1.91;100.00;99009.13;5220316;28;20608;-69
2021/12/10 09:56:52;;;;;;;3.80;2.53;;;;;;;1.87;100.00;99017.50;5220831;28;20021;-69
2021/12/10 09:59:24;;;;;;;3.22;2.00;;;;;;;1.90;100.00;99015.38;5219901;28;20029;-69
2021/12/10 10:01:59;;;;;;;5.15;2.85;;;;;;;1.92;100.00;99018.69;5220306;28;20108;-69
2021/12/10 10:04:34;;;;;;;7.22;3.05;;;;;;;1.96;100.00;99021.88;5220065;28;20017;-69
2021/12/10 10:07:10;;;;;;;7.35;3.05;;;;;;;1.94;100.00;99022.00;5220891;28;20021;-69
2021/12/10 10:09:46;;;;;;;6.32;3.17;;;;;;;1.97;100.00;99026.16;5220278;28;20017;-70
2021/12/10 10:12:22;;;;;;;6.28;3.20;;;;;;;2.03;100.00;99023.72;5219115;28;20370;-70
2021/12/10 10:14:53;;;;;;;6.72;4.07;;;;;;;2.08;100.00;99023.25;5219913;28;20055;-70
2021/12/10 10:17:24;;;;;;;7.35;4.18;;;;;;;2.04;100.00;99022.72;5220227;28;20027;-70
2021/12/10 10:19:55;;;;;;;9.60;4.18;;;;;;;2.10;100.00;99033.66;5219967;28;20025;-70
2021/12/10 10:22:29;;;;;;;10.35;4.18;;;;;;;2.11;100.00;99028.25;5219261;28;20021;-70
2021/12/10 10:25:00;;;;;;;7.72;4.68;;;;;;;2.15;100.00;99032.22;5220197;28;20764;-70
2021/12/10 10:27:33;;;;;;;8.38;4.85;;;;;;;2.14;100.00;99027.91;5220323;28;20028;-70
2021/12/10 10:30:11;;;;;;;9.15;4.30;;;;;;;2.12;100.00;99034.38;5219844;28;20075;-71
2021/12/10 10:32:45;;;;;;;9.23;5.03;;;;;;;2.15;100.00;99028.75;5219411;28;20398;-71
2021/12/10 10:35:22;;;;;;;9.05;4.97;;;;;;;2.15;100.00;99042.78;5219392;28;20024;-70
2021/12/10 10:37:54;;;;;;;9.27;5.18;;;;;;;2.16;100.00;99036.53;5220266;28;20161;-70
2021/12/10 10:40:31;;;;;;;10.65;4.78;;;;;;;2.22;100.00;99043.03;5219139;28;20021;-70
2021/12/10 10:43:02;;;;;;;9.52;5.35;;;;;;;2.21;100.00;99041.34;5219410;28;20029;-70
2021/12/10 10:45:36;;;;;;;7.43;4.80;;;;;;;2.23;100.00;99044.69;5219204;28;20540;-71
2021/12/10 10:48:07;;;;;;;10.38;5.03;;;;;;;2.26;100.00;99042.56;5219934;28;20040;-70
2021/12/10 10:50:46;;;;;;;8.70;4.63;;;;;;;2.24;100.00;99044.50;5219677;28;20021;-70
2021/12/10 10:53:21;;;;;;;8.77;5.32;;;;;;;2.27;100.00;99048.66;5219998;28;20436;-71
2021/12/10 10:56:00;;;;;;;10.07;5.65;;;;;;;2.29;100.00;99047.50;5219043;28;20029;-70
2021/12/10 10:58:39;;;;;;;10.30;5.95;;;;;;;2.28;100.00;99056.44;5219591;28;20098;-70
2021/12/10 11:01:23;;;;;;;11.68;6.18;;;;;;;2.26;100.00;99053.13;5219070;28;20032;-70
2021/12/10 11:03:59;;;;;;;12.15;6.20;;;;;;;2.24;100.00;99056.91;5219490;28;20021;-70
2021/12/10 11:06:36;;;;;;;12.15;6.00;;;;;;;2.25;100.00;99066.50;5205763;28;20050;-70
2021/12/10 11:09:14;;;;;;;12.73;5.55;;;;;;;2.23;100.00;99068.47;5219681;28;20021;-70
2021/12/10 11:11:50;;;;;;;15.48;5.90;;;;;;;2.22;100.00;99065.00;5219095;28;20029;-70
2021/12/10 11:14:37;;;;;;;10.93;5.88;;;;;;;2.19;100.00;99067.97;5218336;28;20400;-70
2021/12/10 11:17:14;;;;;;;13.65;5.80;;;;;;;2.22;100.00;99067.66;5222088;28;20108;-70
2021/12/10 11:19:57;;;;;;;10.85;5.65;;;;;;;2.22;100.00;99082.72;5223659;28;20044;-71
2021/12/10 11:22:30;;;;;;;7.53;4.72;;;;;;;2.25;100.00;99077.09;5222431;28;20517;-70
2021/12/10 11:25:09;;;;;;;9.98;5.03;;;;;;;2.20;100.00;99082.84;5222915;28;20432;-71
2021/12/10 11:27:44;;;;;;;9.98;5.55;;;;;;;2.24;100.00;99086.00;5210606;28;20032;-70
2021/12/10 11:30:26;;;;;;;8.52;5.53;;;;;;;2.22;100.00;99085.34;5223610;28;20483;-70
2021/12/10 11:33:01;;;;;;;12.35;6.55;;;;;;;2.22;100.00;99083.53;5223746;28;20025;-70
2021/12/10 11:35:35;;;;;;;10.90;6.00;;;;;;;2.25;100.00;99091.16;5222791;28;20029;-70
2021/12/10 11:38:14;;;;;;;13.65;6.30;;;;;;;2.28;100.00;99097.94;5223709;28;20023;-70
2021/12/10 11:40:50;;;;;;;11.70;5.88;;;;;;;2.28;100.00;99095.31;5223204;28;20025;-69
2021/12/10 11:48:51;;;;;;;9.05;5.00;;;;;;;2.25;100.00;99095.59;5223242;28;20017;-69
2021/12/10 11:51:27;;;;;;;9.82;5.40;;;;;;;2.26;100.00;99100.75;5222471;28;20029;-69
2021/12/10 11:54:02;;;;;;;13.52;5.93;;;;;;;2.22;100.00;99102.06;5222598;28;20028;-69
2021/12/10 11:56:37;;;;;;;12.02;5.20;;;;;;;2.22;100.00;99104.69;5221159;28;20025;-70
2021/12/10 11:59:17;;;;;;;10.18;5.10;;;;;;;2.23;100.00;99109.00;5210092;28;20022;-71
2021/12/10 12:01:52;;;;;;;9.77;4.82;;;;;;;2.24;100.00;99115.13;5203616;28;20481;-70
2021/12/10 12:04:38;;;;;;;9.65;5.50;;;;;;;2.20;100.00;99119.88;5208672;28;20025;-70
2021/12/10 12:07:20;;;;;;;11.98;5.43;;;;;;;2.10;100.00;99127.09;5208039;28;20078;-70
2021/12/10 12:10:02;;;;;;;14.48;6.38;;;;;;;2.13;100.00;99124.16;5213836;28;20028;-70
2021/12/10 12:12:40;;;;;;;12.35;6.40;;;;;;;2.14;100.00;99125.78;5209001;28;20025;-71
2021/12/10 12:15:15;;;;;;;12.57;6.60;;;;;;;2.19;100.00;99131.47;5208506;28;20029;-70